Time;durP1;ratioP1;P1;durP2;ratioP2;P2;SDS_P1;SDS_P2;PMS_P1;PMS_P2;Temp;Humidity;BMP_temperature;BMP_pressure;BME280_temperature;BME280_humidity;BME280_pressure;Samples;Min_cycle;Max_cycle;Signal;HPM_P1;HPM_P2
2024/02/10 00:04:39;;;;;;;2.10;1.30;;;;;;;;;;10507680;28;20704;-74
2024/02/10 00:09:43;;;;;;;1.73;0.82;;;;;;;;;;10501145;28;20474;-75
2024/02/10 00:14:46;;;;;;;1.73;0.90;;;;;;;;;;10505304;28;20040;-74
2024/02/10 00:19:50;;;;;;;1.25;0.82;;;;;;;;;;10487983;28;20055;-74
2024/02/10 00:24:55;;;;;;;1.40;1.02;;;;;;;;;;10499098;28;20107;-74
2024/02/10 00:29:59;;;;;;;1.20;0.68;;;;;;;;;;10501308;28;20536;-74
2024/02/10 00:35:04;;;;;;;0.77;0.70;;;;;;;;;;10480073;28;20107;-74
2024/02/10 00:40:08;;;;;;;0.57;0.57;;;;;;;;;;10496022;28;20048;-74
2024/02/10 00:45:12;;;;;;;0.52;0.52;;;;;;;;;;10494566;28;20509;-74
2024/02/10 00:50:18;;;;;;;1.10;0.70;;;;;;;;;;10498498;28;20490;-74
2024/02/10 00:55:27;;;;;;;1.33;0.90;;;;;;;;;;10507976;28;20055;-74
2024/02/10 01:00:31;;;;;;;0.70;0.68;;;;;;;;;;10513050;28;20048;-74
2024/02/10 01:05:37;;;;;;;0.70;0.60;;;;;;;;;;10502930;28;20515;-74
2024/02/10 01:10:41;;;;;;;0.80;0.80;;;;;;;;;;10504841;28;20143;-74
2024/02/10 01:15:44;;;;;;;1.13;0.93;;;;;;;;;;10496212;28;20147;-74
2024/02/10 01:20:49;;;;;;;0.60;0.60;;;;;;;;;;10503398;28;20045;-74
2024/02/10 01:25:52;;;;;;;0.98;0.70;;;;;;;;;;10492748;28;20043;-74
2024/02/10 01:30:56;;;;;;;1.23;0.77;;;;;;;;;;10501087;28;20119;-74
2024/02/10 01:36:03;;;;;;;0.57;0.50;;;;;;;;;;10487975;28;20043;-74
2024/02/10 01:41:06;;;;;;;0.82;0.80;;;;;;;;;;10493646;28;20044;-76
2024/02/10 01:46:12;;;;;;;0.82;0.60;;;;;;;;;;10495111;28;20048;-76
2024/02/10 01:51:19;;;;;;;0.60;0.60;;;;;;;;;;10498092;28;20106;-76
2024/02/10 01:56:24;;;;;;;0.40;0.40;;;;;;;;;;10510825;22;20045;-76
2024/02/10 02:01:30;;;;;;;0.68;0.43;;;;;;;;;;10490952;28;20048;-75
2024/02/10 02:06:35;;;;;;;1.47;0.50;;;;;;;;;;10500713;28;20118;-76
2024/02/10 02:11:47;;;;;;;0.60;0.57;;;;;;;;;;10504096;28;20032;-76
2024/02/10 02:16:50;;;;;;;0.50;0.50;;;;;;;;;;10502514;28;20471;-76
2024/02/10 02:21:55;;;;;;;0.57;0.52;;;;;;;;;;10479154;28;20089;-76
2024/02/10 02:26:59;;;;;;;0.68;0.60;;;;;;;;;;10485083;28;20459;-76
2024/02/10 02:32:04;;;;;;;0.57;0.50;;;;;;;;;;10497133;28;20044;-76
2024/02/10 02:37:07;;;;;;;0.45;0.45;;;;;;;;;;10490408;28;20052;-76
2024/02/10 02:42:12;;;;;;;0.85;0.68;;;;;;;;;;10493614;28;20060;-76
2024/02/10 02:47:15;;;;;;;0.45;0.40;;;;;;;;;;10476791;28;20052;-76
2024/02/10 02:52:18;;;;;;;0.98;0.70;;;;;;;;;;10492089;28;20375;-76
2024/02/10 02:57:26;;;;;;;0.65;0.60;;;;;;;;;;10491390;28;20477;-76
2024/02/10 03:02:30;;;;;;;0.65;0.50;;;;;;;;;;10493287;28;20047;-76
2024/02/10 03:07:33;;;;;;;0.50;0.50;;;;;;;;;;10490742;28;20105;-77
2024/02/10 03:12:38;;;;;;;0.70;0.50;;;;;;;;;;10486565;28;20055;-76
2024/02/10 03:17:45;;;;;;;1.55;0.50;;;;;;;;;;10490053;28;20105;-76
2024/02/10 03:22:53;;;;;;;0.60;0.50;;;;;;;;;;10472157;28;20044;-76
2024/02/10 03:27:59;;;;;;;0.50;0.50;;;;;;;;;;10490087;28;20043;-76
2024/02/10 03:33:02;;;;;;;0.57;0.57;;;;;;;;;;10488917;28;20456;-76
2024/02/10 03:38:07;;;;;;;0.80;0.60;;;;;;;;;;10495034;28;20294;-76
2024/02/10 03:43:12;;;;;;;0.60;0.60;;;;;;;;;;10491271;28;20075;-76
2024/02/10 03:48:15;;;;;;;0.80;0.52;;;;;;;;;;10492611;28;20040;-76
2024/02/10 03:53:19;;;;;;;1.65;0.82;;;;;;;;;;10485193;28;20102;-76
2024/02/10 03:58:25;;;;;;;0.82;0.55;;;;;;;;;;10489595;28;20032;-76
2024/02/10 04:03:28;;;;;;;1.00;0.85;;;;;;;;;;10481946;28;20048;-76
2024/02/10 04:08:32;;;;;;;0.75;0.57;;;;;;;;;;10487919;28;20051;-76
2024/02/10 04:13:38;;;;;;;1.70;0.60;;;;;;;;;;10490855;28;20554;-76
2024/02/10 04:18:42;;;;;;;1.08;0.77;;;;;;;;;;10495810;28;20093;-76
2024/02/10 04:23:45;;;;;;;0.47;0.47;;;;;;;;;;10494412;28;20098;-76
2024/02/10 04:28:50;;;;;;;0.47;0.47;;;;;;;;;;10489688;28;20098;-76
2024/02/10 04:33:53;;;;;;;2.30;0.68;;;;;;;;;;10489042;28;20048;-76
2024/02/10 04:38:57;;;;;;;0.88;0.70;;;;;;;;;;10507442;28;20039;-76
2024/02/10 04:44:02;;;;;;;0.57;0.57;;;;;;;;;;10493825;28;20531;-76
2024/02/10 04:49:05;;;;;;;0.73;0.73;;;;;;;;;;10494636;28;20106;-76
2024/02/10 04:54:09;;;;;;;0.77;0.63;;;;;;;;;;10482525;28;20526;-76
2024/02/10 04:59:26;;;;;;;1.30;1.05;;;;;;;;;;10486920;28;20791;-76
2024/02/10 05:04:29;;;;;;;1.08;0.98;;;;;;;;;;10496278;28;20520;-76
2024/02/10 05:09:32;;;;;;;0.90;0.80;;;;;;;;;;10500208;28;20131;-76
2024/02/10 05:14:37;;;;;;;1.27;0.68;;;;;;;;;;10478770;22;20102;-76
2024/02/10 05:19:41;;;;;;;0.75;0.75;;;;;;;;;;10470429;28;20048;-76
2024/02/10 05:24:46;;;;;;;1.75;0.82;;;;;;;;;;10457826;28;20107;-76
2024/02/10 05:29:52;;;;;;;1.42;0.90;;;;;;;;;;10445883;28;20044;-76
2024/02/10 05:34:55;;;;;;;3.37;1.20;;;;;;;;;;10463010;28;20055;-77
2024/02/10 05:39:58;;;;;;;1.38;1.10;;;;;;;;;;10467364;28;20068;-76
2024/02/10 05:45:06;;;;;;;1.30;1.17;;;;;;;;;;10467165;28;20292;-76
2024/02/10 05:50:12;;;;;;;1.27;1.00;;;;;;;;;;10455808;28;20755;-76
2024/02/10 05:55:20;;;;;;;;;;;;;;;;;;10457755;28;20051;-76
2024/02/10 06:00:25;;;;;;;1.20;1.10;;;;;;;;;;10452435;28;19925;-76
2024/02/10 06:05:29;;;;;;;1.15;1.00;;;;;;;;;;10462208;28;20088;-76
2024/02/10 06:10:32;;;;;;;2.42;0.85;;;;;;;;;;10455302;28;20456;-76
2024/02/10 06:15:37;;;;;;;0.88;0.88;;;;;;;;;;10444916;28;20600;-76
2024/02/10 06:20:41;;;;;;;1.45;1.10;;;;;;;;;;10458082;28;20041;-76
2024/02/10 06:25:44;;;;;;;0.82;0.82;;;;;;;;;;10450865;28;20437;-76
2024/02/10 06:30:50;;;;;;;1.27;1.00;;;;;;;;;;10448489;28;20041;-76
2024/02/10 06:35:57;;;;;;;1.10;0.98;;;;;;;;;;10452121;28;20045;-76
2024/02/10 06:41:01;;;;;;;0.90;0.90;;;;;;;;;;10462904;28;20490;-75
2024/02/10 06:46:07;;;;;;;2.15;1.38;;;;;;;;;;10456284;28;20045;-76
2024/02/10 06:51:11;;;;;;;;;;;;;;;;;;10449734;28;20484;-76
2024/02/10 06:56:15;;;;;;;1.58;1.15;;;;;;;;;;10459702;28;19956;-76
2024/02/10 07:01:19;;;;;;;2.78;1.38;;;;;;;;;;10451735;28;20823;-76
2024/02/10 07:06:27;;;;;;;2.25;1.40;;;;;;;;;;10449770;28;20200;-76
2024/02/10 07:11:32;;;;;;;2.05;1.38;;;;;;;;;;10447643;28;20262;-76
2024/02/10 07:16:37;;;;;;;2.15;1.70;;;;;;;;;;10449508;28;20052;-76
2024/02/10 07:21:42;;;;;;;2.28;1.30;;;;;;;;;;10454894;28;20139;-76
2024/02/10 07:26:47;;;;;;;2.03;1.55;;;;;;;;;;10452770;28;20040;-76
2024/02/10 07:31:53;;;;;;;2.53;1.95;;;;;;;;;;10447873;28;20569;-76
2024/02/10 07:36:59;;;;;;;3.40;2.63;;;;;;;;;;10459245;28;20440;-76
2024/02/10 07:42:03;;;;;;;3.08;2.20;;;;;;;;;;10460081;28;20672;-76
2024/02/10 07:47:10;;;;;;;4.95;2.83;;;;;;;;;;10460458;28;20053;-76
2024/02/10 07:52:13;;;;;;;3.38;2.45;;;;;;;;;;10459947;28;20495;-76
2024/02/10 07:57:19;;;;;;;2.53;1.75;;;;;;;;;;10461093;28;20055;-76
2024/02/10 08:02:26;;;;;;;1.88;1.27;;;;;;;;;;10449043;28;20056;-76
2024/02/10 08:07:30;;;;;;;1.45;1.23;;;;;;;;;;10441330;28;20140;-76
2024/02/10 08:12:33;;;;;;;1.42;1.10;;;;;;;;;;10447288;28;20048;-76
2024/02/10 08:17:40;;;;;;;1.27;1.17;;;;;;;;;;10449688;28;20466;-76
2024/02/10 08:22:47;;;;;;;1.55;1.10;;;;;;;;;;10446759;28;20522;-76
2024/02/10 08:27:54;;;;;;;2.10;1.40;;;;;;;;;;10453345;28;20600;-76
2024/02/10 08:33:00;;;;;;;1.50;1.20;;;;;;;;;;10432866;28;20091;-76
2024/02/10 08:38:04;;;;;;;1.87;1.20;;;;;;;;;;10444637;28;20094;-76
2024/02/10 08:43:09;;;;;;;1.77;1.38;;;;;;;;;;10446976;28;20470;-76
2024/02/10 08:48:14;;;;;;;2.85;1.35;;;;;;;;;;10444037;28;20445;-76
2024/02/10 08:53:17;;;;;;;1.00;1.00;;;;;;;;;;10442647;28;20126;-76
2024/02/10 08:58:22;;;;;;;1.40;0.93;;;;;;;;;;10439472;28;20072;-76
2024/02/10 09:03:31;;;;;;;1.58;1.38;;;;;;;;;;10446462;28;20669;-76
2024/02/10 09:08:37;;;;;;;2.42;1.30;;;;;;;;;;10451504;28;20120;-76
2024/02/10 09:13:40;;;;;;;1.25;0.90;;;;;;;;;;10457248;28;20132;-76
2024/02/10 09:18:45;;;;;;;0.93;0.70;;;;;;;;;;10431605;28;20542;-76
2024/02/10 09:23:48;;;;;;;0.75;0.73;;;;;;;;;;10436762;28;20045;-76
2024/02/10 09:28:52;;;;;;;1.05;0.80;;;;;;;;;;10462411;28;20041;-76
2024/02/10 09:33:56;;;;;;;2.05;1.00;;;;;;;;;;10459706;28;20048;-76
2024/02/10 09:39:02;;;;;;;1.27;0.90;;;;;;;;;;10454659;28;20118;-76
2024/02/10 09:44:10;;;;;;;1.00;0.80;;;;;;;;;;10453402;28;20059;-76
2024/02/10 09:49:16;;;;;;;0.90;0.75;;;;;;;;;;10447023;28;20045;-76
2024/02/10 09:54:20;;;;;;;1.10;0.68;;;;;;;;;;10444779;28;20040;-76
2024/02/10 09:59:24;;;;;;;0.98;0.70;;;;;;;;;;10452118;28;20047;-76
2024/02/10 10:04:29;;;;;;;1.48;0.90;;;;;;;;;;10450546;28;20036;-75
2024/02/10 10:09:32;;;;;;;1.55;1.00;;;;;;;;;;10450444;28;20113;-76
2024/02/10 10:14:37;;;;;;;1.48;1.30;;;;;;;;;;10457219;28;20056;-75
2024/02/10 10:19:41;;;;;;;1.70;1.45;;;;;;;;;;10462602;28;20040;-76
2024/02/10 10:24:45;;;;;;;2.78;1.67;;;;;;;;;;10447338;28;20065;-76
2024/02/10 10:29:49;;;;;;;1.92;1.65;;;;;;;;;;10457551;28;20043;-75
2024/02/10 10:34:55;;;;;;;1.80;1.10;;;;;;;;;;10435014;28;20041;-75
2024/02/10 10:40:00;;;;;;;1.60;1.50;;;;;;;;;;10454360;28;20098;-76
2024/02/10 10:45:05;;;;;;;2.90;1.95;;;;;;;;;;10453029;28;20043;-75
2024/02/10 10:50:10;;;;;;;2.40;1.83;;;;;;;;;;10446493;28;20051;-75
2024/02/10 10:55:16;;;;;;;2.10;1.63;;;;;;;;;;10447273;28;20141;-75
2024/02/10 11:00:24;;;;;;;1.52;1.27;;;;;;;;;;10430399;28;20045;-76
2024/02/10 11:05:34;;;;;;;1.77;1.55;;;;;;;;;;10442428;28;20053;-75
2024/02/10 11:10:39;;;;;;;2.67;1.98;;;;;;;;;;10465297;22;20071;-74
2024/02/10 11:15:42;;;;;;;2.53;1.83;;;;;;;;;;10462843;28;20060;-76
2024/02/10 11:20:46;;;;;;;3.10;2.38;;;;;;;;;;10465084;28;20039;-74
2024/02/10 11:25:54;;;;;;;2.33;1.85;;;;;;;;;;10449593;28;20040;-74
2024/02/10 11:31:08;;;;;;;3.22;2.10;;;;;;;;;;10469405;28;20044;-74
2024/02/10 11:36:12;;;;;;;2.65;2.05;;;;;;;;;;10472421;28;20041;-74
2024/02/10 11:41:16;;;;;;;4.25;2.10;;;;;;;;;;10475383;28;20044;-74
2024/02/10 11:46:19;;;;;;;2.38;1.80;;;;;;;;;;10475186;28;20255;-74
2024/02/10 11:51:25;;;;;;;2.90;2.13;;;;;;;;;;10481541;28;20059;-74
2024/02/10 11:56:33;;;;;;;3.53;1.95;;;;;;;;;;10481248;28;20542;-74
2024/02/10 12:01:36;;;;;;;2.80;2.13;;;;;;;;;;10479249;28;20429;-74
2024/02/10 12:06:41;;;;;;;2.00;1.38;;;;;;;;;;10484116;28;20051;-74
2024/02/10 12:11:46;;;;;;;1.73;1.30;;;;;;;;;;10484243;28;20045;-74
2024/02/10 12:16:49;;;;;;;2.05;1.23;;;;;;;;;;10482235;28;20400;-74
2024/02/10 12:21:54;;;;;;;1.10;1.00;;;;;;;;;;10473502;28;20207;-74
2024/02/10 12:26:58;;;;;;;1.10;1.00;;;;;;;;;;10479316;28;20037;-74
2024/02/10 12:32:01;;;;;;;1.80;1.00;;;;;;;;;;10485430;28;20033;-74
2024/02/10 12:37:08;;;;;;;1.50;0.85;;;;;;;;;;10458471;28;20055;-74
2024/02/10 12:42:11;;;;;;;1.10;0.80;;;;;;;;;;10464332;28;20049;-74
2024/02/10 12:47:15;;;;;;;2.25;1.40;;;;;;;;;;10454037;28;20061;-74
2024/02/10 12:52:20;;;;;;;1.15;1.05;;;;;;;;;;10477720;28;20461;-74
2024/02/10 12:57:24;;;;;;;1.48;0.80;;;;;;;;;;10475349;28;20076;-74
2024/02/10 13:02:27;;;;;;;1.30;0.77;;;;;;;;;;10471916;28;20056;-74
2024/02/10 13:07:32;;;;;;;1.35;0.68;;;;;;;;;;10478268;28;20444;-74
2024/02/10 13:12:36;;;;;;;0.90;0.70;;;;;;;;;;10479000;28;20064;-74
2024/02/10 13:17:39;;;;;;;0.95;0.70;;;;;;;;;;10481008;28;20071;-74
2024/02/10 13:22:44;;;;;;;0.55;0.55;;;;;;;;;;10479938;28;20445;-74
2024/02/10 13:27:50;;;;;;;0.77;0.57;;;;;;;;;;10479632;28;20040;-74
2024/02/10 13:32:56;;;;;;;0.70;0.60;;;;;;;;;;10478785;28;21118;-74
2024/02/10 14:04:40;;;;;;;1.13;0.60;;;;;;;;;;10476813;28;20044;-74
2024/02/10 14:09:45;;;;;;;1.05;0.63;;;;;;;;;;10481594;28;20219;-74
2024/02/10 14:14:48;;;;;;;0.47;0.40;;;;;;;;;;10467619;28;20051;-74
2024/02/10 14:20:08;;;;;;;0.50;0.43;;;;;;;;;;10471031;28;20048;-74
2024/02/10 14:25:23;;;;;;;0.60;0.60;;;;;;;;;;10474785;28;20055;-73
2024/02/10 14:30:37;;;;;;;1.95;1.17;;;;;;;;;;10476166;28;20255;-74
2024/02/10 14:35:54;;;;;;;1.95;1.30;;;;;;;;;;10473293;28;20596;-74
2024/02/10 14:41:02;;;;;;;1.58;0.80;;;;;;;;;;10475802;28;20039;-74
2024/02/10 14:46:08;;;;;;;1.08;0.70;;;;;;;;;;10473163;28;20451;-75
2024/02/10 14:51:12;;;;;;;0.93;0.60;;;;;;;;;;10466984;28;20127;-74
2024/02/10 14:56:22;;;;;;;1.17;0.70;;;;;;;;;;10477463;28;20052;-75
2024/02/10 15:01:30;;;;;;;1.58;0.80;;;;;;;;;;10478437;28;20051;-74
2024/02/10 15:06:36;;;;;;;1.77;1.10;;;;;;;;;;10471597;28;20214;-78
2024/02/10 15:11:41;;;;;;;0.90;0.70;;;;;;;;;;10468006;28;20082;-75
2024/02/10 15:16:44;;;;;;;3.00;0.80;;;;;;;;;;10475628;28;20566;-74
2024/02/10 15:21:47;;;;;;;1.00;0.70;;;;;;;;;;10475549;28;20039;-74
2024/02/10 15:26:52;;;;;;;2.45;0.85;;;;;;;;;;10474519;28;20051;-74
2024/02/10 15:31:56;;;;;;;1.75;1.08;;;;;;;;;;10472446;28;20047;-74
2024/02/10 15:37:01;;;;;;;;;;;;;;;;;;10458263;28;20048;-74
2024/02/10 15:42:06;;;;;;;2.45;1.02;;;;;;;;;;10473789;28;20369;-74
2024/02/10 15:47:09;;;;;;;1.73;1.00;;;;;;;;;;10472793;28;20040;-74
2024/02/10 15:52:14;;;;;;;2.40;1.00;;;;;;;;;;10475087;28;20194;-74
2024/02/10 15:57:19;;;;;;;1.35;1.00;;;;;;;;;;10471282;28;20051;-74
2024/02/10 16:02:25;;;;;;;2.47;1.20;;;;;;;;;;10470822;28;20116;-74
2024/02/10 16:07:29;;;;;;;1.20;1.10;;;;;;;;;;10474006;28;20069;-74
2024/02/10 16:12:33;;;;;;;1.38;0.80;;;;;;;;;;10475421;28;20037;-74
2024/02/10 16:17:37;;;;;;;1.00;0.60;;;;;;;;;;10470577;28;20045;-74
2024/02/10 16:22:40;;;;;;;1.50;0.88;;;;;;;;;;10475917;28;20087;-74
2024/02/10 16:27:45;;;;;;;2.45;1.50;;;;;;;;;;10467348;28;20049;-74
2024/02/10 16:32:49;;;;;;;1.58;0.98;;;;;;;;;;10473256;28;20039;-74
2024/02/10 16:37:54;;;;;;;2.22;0.93;;;;;;;;;;10478297;28;20047;-74
2024/02/10 16:42:59;;;;;;;1.10;0.95;;;;;;;;;;10477215;28;20036;-74
2024/02/10 16:48:03;;;;;;;1.52;1.10;;;;;;;;;;10462916;28;20044;-74
2024/02/10 16:53:08;;;;;;;2.05;0.93;;;;;;;;;;10481660;28;20075;-74
2024/02/10 16:58:20;;;;;;;0.68;0.68;;;;;;;;;;10460907;28;20122;-74
2024/02/10 17:03:24;;;;;;;1.75;0.80;;;;;;;;;;10478071;28;20052;-73
2024/02/10 17:08:29;;;;;;;1.33;0.80;;;;;;;;;;10482681;28;20048;-74
2024/02/10 17:13:34;;;;;;;1.60;0.90;;;;;;;;;;10463498;28;20123;-74
2024/02/10 17:18:37;;;;;;;0.82;0.60;;;;;;;;;;10479606;28;20127;-73
2024/02/10 17:23:40;;;;;;;1.20;1.10;;;;;;;;;;10464708;28;20048;-74
2024/02/10 17:28:45;;;;;;;0.85;0.75;;;;;;;;;;10477768;28;20045;-74
2024/02/10 17:33:48;;;;;;;2.38;1.10;;;;;;;;;;10482882;28;20049;-74
2024/02/10 17:38:59;;;;;;;1.02;0.80;;;;;;;;;;10463048;28;20048;-74
2024/02/10 17:44:04;;;;;;;1.35;0.95;;;;;;;;;;10482154;28;20060;-74
2024/02/10 17:49:10;;;;;;;1.77;1.40;;;;;;;;;;10481251;28;20041;-74
2024/02/10 17:54:18;;;;;;;2.50;2.20;;;;;;;;;;10464875;28;20109;-74
2024/02/10 17:59:27;;;;;;;7.43;3.65;;;;;;;;;;10481614;28;20110;-74
2024/02/10 18:04:31;;;;;;;5.45;3.22;;;;;;;;;;10475529;28;20041;-74
2024/02/10 18:09:35;;;;;;;4.32;2.40;;;;;;;;;;10477850;28;20054;-74
2024/02/10 18:14:39;;;;;;;4.28;2.63;;;;;;;;;;10472572;28;20052;-74
2024/02/10 18:19:43;;;;;;;18.88;11.68;;;;;;;;;;10477354;28;20051;-74
2024/02/10 18:24:47;;;;;;;10.50;6.03;;;;;;;;;;10478912;28;20493;-74
2024/02/10 18:29:52;;;;;;;7.43;4.97;;;;;;;;;;10477493;28;20052;-74
2024/02/10 18:34:56;;;;;;;9.55;5.97;;;;;;;;;;10481899;28;20033;-74
2024/02/10 18:39:59;;;;;;;8.82;5.57;;;;;;;;;;10479076;28;20111;-74
2024/02/10 18:45:06;;;;;;;5.28;3.90;;;;;;;;;;10481081;28;20051;-74
2024/02/10 18:50:10;;;;;;;3.63;2.42;;;;;;;;;;10478936;28;20120;-74
2024/02/10 18:55:14;;;;;;;3.40;2.00;;;;;;;;;;10474603;28;20559;-74
2024/02/10 19:00:19;;;;;;;3.00;1.80;;;;;;;;;;10477112;28;20059;-74
2024/02/10 19:05:23;;;;;;;2.53;1.40;;;;;;;;;;10473977;28;20521;-74
2024/02/10 19:10:26;;;;;;;4.53;2.10;;;;;;;;;;10466513;28;20053;-75
2024/02/10 19:15:31;;;;;;;2.20;1.33;;;;;;;;;;10480058;28;20071;-74
2024/02/10 19:20:34;;;;;;;2.95;1.70;;;;;;;;;;10469363;28;20051;-75
2024/02/10 19:25:39;;;;;;;1.55;1.30;;;;;;;;;;10467993;28;20070;-74
2024/02/10 19:30:45;;;;;;;1.88;1.27;;;;;;;;;;10476858;28;20064;-74
2024/02/10 19:35:50;;;;;;;2.35;1.50;;;;;;;;;;10472542;28;20056;-74
2024/02/10 19:40:54;;;;;;;3.63;2.25;;;;;;;;;;10478758;28;20040;-74
2024/02/10 19:45:59;;;;;;;4.15;2.70;;;;;;;;;;10456882;28;20109;-74
2024/02/10 19:51:04;;;;;;;5.18;3.05;;;;;;;;;;10473761;28;20123;-74
2024/02/10 19:56:09;;;;;;;7.05;3.40;;;;;;;;;;10476646;28;20600;-74
2024/02/10 20:01:13;;;;;;;5.07;3.20;;;;;;;;;;10476632;28;20080;-74
2024/02/10 20:06:16;;;;;;;8.07;3.22;;;;;;;;;;10472196;28;20080;-74
2024/02/10 20:11:21;;;;;;;6.03;3.33;;;;;;;;;;10480230;28;20036;-74
2024/02/10 20:16:28;;;;;;;5.80;3.33;;;;;;;;;;10484541;28;20047;-74
2024/02/10 20:21:32;;;;;;;5.15;2.95;;;;;;;;;;10480776;28;20439;-74
2024/02/10 20:26:38;;;;;;;4.95;2.63;;;;;;;;;;10474330;28;20052;-74
2024/02/10 20:31:43;;;;;;;3.17;2.20;;;;;;;;;;10480679;28;20382;-74
2024/02/10 20:36:49;;;;;;;4.25;2.33;;;;;;;;;;10486742;28;20132;-74
2024/02/10 20:41:56;;;;;;;3.03;1.80;;;;;;;;;;10483643;28;20392;-74
2024/02/10 20:47:01;;;;;;;3.47;1.83;;;;;;;;;;10484790;28;20788;-74
2024/02/10 20:52:05;;;;;;;3.55;2.05;;;;;;;;;;10492550;28;20448;-74
2024/02/10 20:57:10;;;;;;;3.05;2.10;;;;;;;;;;10486856;28;20059;-74
2024/02/10 21:02:15;;;;;;;2.27;1.70;;;;;;;;;;10484089;28;20056;-74
2024/02/10 21:07:19;;;;;;;2.33;2.03;;;;;;;;;;10479126;28;20740;-75
2024/02/10 21:12:22;;;;;;;3.15;2.40;;;;;;;;;;10487323;28;20040;-74
2024/02/10 21:17:27;;;;;;;4.40;2.50;;;;;;;;;;10467456;28;20087;-74
2024/02/10 21:22:30;;;;;;;4.25;2.28;;;;;;;;;;10463616;28;20522;-74
2024/02/10 21:27:33;;;;;;;3.75;2.72;;;;;;;;;;10483005;28;20048;-74
2024/02/10 21:32:39;;;;;;;4.18;2.47;;;;;;;;;;10482884;28;20044;-74
2024/02/10 21:37:43;;;;;;;4.43;2.07;;;;;;;;;;10481413;28;20470;-74
2024/02/10 21:42:47;;;;;;;2.20;1.55;;;;;;;;;;10479266;28;20315;-74
2024/02/10 21:47:52;;;;;;;3.30;2.65;;;;;;;;;;10478629;28;20441;-74
2024/02/10 21:52:55;;;;;;;3.90;2.72;;;;;;;;;;10476358;28;20056;-74
2024/02/10 21:58:00;;;;;;;3.50;2.65;;;;;;;;;;10462266;28;20618;-74
2024/02/10 22:03:05;;;;;;;5.53;2.60;;;;;;;;;;10470715;28;20040;-74
2024/02/10 22:08:08;;;;;;;4.18;2.65;;;;;;;;;;10476148;28;20040;-74
2024/02/10 22:13:12;;;;;;;4.03;2.70;;;;;;;;;;10484436;28;20052;-74
2024/02/10 22:18:17;;;;;;;5.05;3.20;;;;;;;;;;10477771;28;20119;-74
2024/02/10 22:23:20;;;;;;;4.32;2.63;;;;;;;;;;10475148;28;20059;-74
2024/02/10 22:28:31;;;;;;;5.45;3.08;;;;;;;;;;10475865;28;20041;-74
2024/02/10 22:33:36;;;;;;;4.70;3.05;;;;;;;;;;10479690;28;20042;-74
2024/02/10 22:38:40;;;;;;;3.92;3.03;;;;;;;;;;10470918;28;20053;-74
2024/02/10 22:43:43;;;;;;;6.25;3.83;;;;;;;;;;10458409;28;20417;-74
2024/02/10 22:48:47;;;;;;;4.57;3.42;;;;;;;;;;10478304;28;20044;-74
2024/02/10 22:53:51;;;;;;;5.45;3.33;;;;;;;;;;10477794;28;20052;-74
2024/02/10 22:58:54;;;;;;;5.97;2.10;;;;;;;;;;10476005;28;20048;-74
2024/02/10 23:04:00;;;;;;;3.00;1.83;;;;;;;;;;10480329;28;20041;-74
2024/02/10 23:09:12;;;;;;;2.83;1.20;;;;;;;;;;10470490;28;20064;-74
2024/02/10 23:14:20;;;;;;;2.10;1.38;;;;;;;;;;10522967;22;20494;-75
2024/02/10 23:19:52;;;;;;;1.88;1.40;;;;;;;;;;10441663;28;20104;-75
2024/02/10 23:24:58;;;;;;;2.05;1.70;;;;;;;;;;10413779;28;20044;-75
2024/02/10 23:30:05;;;;;;;3.33;1.50;;;;;;;;;;10475486;28;20188;-75
2024/02/10 23:35:28;;;;;;;3.15;2.05;;;;;;;;;;10459967;28;20037;-75
2024/02/10 23:40:43;;;;;;;4.38;1.77;;;;;;;;;;10470183;28;20041;-75
2024/02/10 23:46:27;;;;;;;;;;;;;;;;;;;;;
2024/02/10 23:52:24;;;;;;;;;;;;;;;;;;;;;
2024/02/10 23:57:49;;;;;;;3.72;1.40;;;;;;;;;;10327636;28;20054;-75
